Time;durP1;ratioP1;P1;durP2;ratioP2;P2;SDS_P1;SDS_P2;PMS_P1;PMS_P2;Temp;Humidity;BMP_temperature;BMP_pressure;BME280_temperature;BME280_humidity;BME280_pressure;Samples;Min_cycle;Max_cycle;Signal;HPM_P1;HPM_P2
2021/03/07 00:01:03;;;;;;;154.82;123.10;;;31.30;14.20;;;;;;5038802;28;20080;-65
2021/03/07 00:03:30;;;;;;;60.85;49.75;;;31.30;14.70;;;;;;5040706;28;20080;-65
2021/03/07 00:05:57;;;;;;;15.05;7.18;;;31.20;14.30;;;;;;5036925;28;20082;-65
2021/03/07 00:08:23;;;;;;;21.17;14.50;;;31.30;14.70;;;;;;5034079;28;20094;-64
2021/03/07 00:10:50;;;;;;;30.20;20.90;;;31.30;14.90;;;;;;5036911;28;20081;-65
2021/03/07 00:13:16;;;;;;;39.92;34.50;;;31.20;14.30;;;;;;5018493;28;20085;-65
2021/03/07 00:15:43;;;;;;;24.50;20.08;;;31.20;14.40;;;;;;5034968;28;20078;-64
2021/03/07 00:18:10;;;;;;;9.05;2.65;;;31.10;14.60;;;;;;5039948;28;20128;-65
2021/03/07 00:20:36;;;;;;;22.08;4.10;;;31.10;14.40;;;;;;5037034;28;20748;-64
2021/03/07 00:23:03;;;;;;;10.60;2.28;;;31.10;14.30;;;;;;5038021;28;20108;-66
2021/03/07 00:25:30;;;;;;;9.98;5.25;;;31.00;14.60;;;;;;5038717;28;20061;-64
2021/03/07 00:27:56;;;;;;;22.15;11.90;;;31.00;14.10;;;;;;5038084;28;20097;-66
2021/03/07 00:30:23;;;;;;;15.93;8.70;;;31.00;14.40;;;;;;5039357;28;20165;-64
2021/03/07 00:32:49;;;;;;;11.15;3.72;;;30.90;14.60;;;;;;5054817;28;20081;-66
2021/03/07 00:35:16;;;;;;;16.42;10.68;;;30.90;14.60;;;;;;5041879;28;20597;-65
2021/03/07 00:37:43;;;;;;;16.75;6.75;;;30.70;14.80;;;;;;5038500;28;20124;-65
2021/03/07 00:40:11;;;;;;;28.15;12.85;;;30.70;14.80;;;;;;5039305;28;20085;-64
2021/03/07 00:42:46;;;;;;;34.38;19.13;;;30.40;15.00;;;;;;5038148;28;20557;-66
2021/03/07 00:45:14;;;;;;;19.48;11.85;;;30.40;15.00;;;;;;5042071;28;20078;-66
2021/03/07 00:47:42;;;;;;;15.57;5.45;;;30.20;15.10;;;;;;5044544;28;20090;-65
2021/03/07 00:50:12;;;;;;;17.08;5.40;;;30.00;15.50;;;;;;5041328;28;20085;-65
2021/03/07 00:52:40;;;;;;;19.67;8.25;;;30.00;15.90;;;;;;5041328;28;20117;-65
2021/03/07 00:55:07;;;;;;;19.27;4.50;;;29.70;15.90;;;;;;5042130;28;20112;-65
2021/03/07 00:57:33;;;;;;;12.13;4.68;;;29.70;16.40;;;;;;5040793;28;20074;-64
2021/03/07 01:00:00;;;;;;;23.33;7.00;;;29.50;16.50;;;;;;5043509;28;20070;-65
2021/03/07 01:02:27;;;;;;;18.75;6.68;;;29.40;16.20;;;;;;5043572;28;20070;-65
2021/03/07 01:04:54;;;;;;;20.75;12.02;;;29.20;16.30;;;;;;5043376;28;20098;-64
2021/03/07 01:07:21;;;;;;;36.58;25.77;;;29.10;16.40;;;;;;5040308;28;20173;-65
2021/03/07 01:09:48;;;;;;;35.92;20.55;;;29.00;16.80;;;;;;5037602;28;20707;-64
2021/03/07 01:12:14;;;;;;;32.28;17.00;;;28.90;16.70;;;;;;5043076;28;20160;-65
2021/03/07 01:14:41;;;;;;;29.00;17.30;;;28.70;16.90;;;;;;5041950;28;20075;-65
2021/03/07 01:17:08;;;;;;;18.23;12.43;;;28.50;17.10;;;;;;5049265;28;20070;-65
2021/03/07 01:19:35;;;;;;;36.22;20.83;;;28.40;17.20;;;;;;5053800;28;20069;-65
2021/03/07 01:22:04;;;;;;;34.22;19.77;;;28.30;17.40;;;;;;5050124;28;20116;-64
2021/03/07 01:24:31;;;;;;;48.95;27.00;;;28.10;17.70;;;;;;5047232;28;20073;-65
2021/03/07 01:26:57;;;;;;;34.22;17.63;;;28.00;17.90;;;;;;5043410;28;20667;-65
2021/03/07 01:29:24;;;;;;;30.88;19.63;;;27.90;18.10;;;;;;5045424;28;20093;-64
2021/03/07 01:31:51;;;;;;;22.05;11.65;;;27.70;18.00;;;;;;5048039;28;20070;-64
2021/03/07 01:34:17;;;;;;;17.73;5.85;;;27.50;18.50;;;;;;5055076;28;20081;-65
2021/03/07 01:36:47;;;;;;;16.77;5.45;;;27.30;18.50;;;;;;5047248;28;20078;-65
2021/03/07 01:39:14;;;;;;;24.75;5.35;;;27.20;18.70;;;;;;5042123;28;20081;-65
2021/03/07 01:41:40;;;;;;;18.08;5.35;;;27.10;18.90;;;;;;5051707;28;20085;-65
2021/03/07 01:44:07;;;;;;;14.23;4.63;;;26.90;19.10;;;;;;5048686;28;20082;-65
2021/03/07 01:46:33;;;;;;;13.52;4.55;;;26.80;19.80;;;;;;5044490;28;20070;-65
2021/03/07 01:49:00;;;;;;;31.35;5.78;;;26.60;19.80;;;;;;5046934;28;20074;-64
2021/03/07 01:51:27;;;;;;;35.72;7.45;;;26.50;20.00;;;;;;5044784;28;20077;-64
2021/03/07 01:53:56;;;;;;;24.75;7.07;;;26.20;20.20;;;;;;5041105;28;20173;-65
2021/03/07 01:56:24;;;;;;;30.77;8.70;;;26.00;20.50;;;;;;5049268;28;20442;-65
2021/03/07 01:58:54;;;;;;;33.28;11.20;;;25.80;20.80;;;;;;5048923;28;20492;-64
2021/03/07 02:01:21;;;;;;;24.40;9.32;;;25.70;20.80;;;;;;5050148;28;20129;-65
2021/03/07 02:03:52;;;;;;;19.88;8.07;;;25.60;21.10;;;;;;5050327;28;20096;-65
2021/03/07 02:06:23;;;;;;;22.70;8.18;;;25.50;21.40;;;;;;5049236;28;20092;-65
2021/03/07 02:08:49;;;;;;;27.30;8.77;;;25.40;21.30;;;;;;5046907;28;20551;-66
2021/03/07 02:11:17;;;;;;;32.20;9.93;;;25.30;21.90;;;;;;5057353;28;20073;-66
2021/03/07 02:13:45;;;;;;;36.60;12.00;;;25.20;22.20;;;;;;5043997;28;20183;-64
2021/03/07 02:16:17;;;;;;;30.40;9.57;;;25.10;22.50;;;;;;5047987;28;20078;-65
2021/03/07 02:18:46;;;;;;;31.63;8.60;;;25.00;22.40;;;;;;5041008;28;20074;-65
2021/03/07 02:21:36;;;;;;;31.88;8.02;;;24.90;22.40;;;;;;5044482;28;20077;-65
2021/03/07 02:24:08;;;;;;;24.33;7.68;;;24.80;22.70;;;;;;5046513;28;20079;-63
2021/03/07 02:26:48;;;;;;;38.55;8.82;;;24.70;22.10;;;;;;5047022;28;20078;-65
2021/03/07 02:29:16;;;;;;;40.75;7.88;;;24.70;22.10;;;;;;5049728;28;20526;-64
2021/03/07 02:31:55;;;;;;;34.28;8.45;;;24.60;22.80;;;;;;5042201;28;20070;-65
2021/03/07 02:34:42;;;;;;;43.15;8.40;;;24.50;23.00;;;;;;5046064;28;20078;-67
2021/03/07 02:37:11;;;;;;;40.63;7.75;;;24.30;23.10;;;;;;5044756;28;20081;-64
2021/03/07 02:39:42;;;;;;;35.47;7.93;;;24.20;23.20;;;;;;5047960;28;20471;-64
2021/03/07 02:42:17;;;;;;;36.38;7.28;;;24.10;23.50;;;;;;5042385;28;20085;-64
2021/03/07 02:45:18;;;;;;;29.08;7.60;;;24.00;23.20;;;;;;5044567;28;20069;-67
2021/03/07 02:47:47;;;;;;;43.40;10.35;;;23.80;23.00;;;;;;5031142;28;20180;-65
2021/03/07 02:50:24;;;;;;;46.72;16.00;;;23.70;23.50;;;;;;5040596;28;20085;-66
2021/03/07 02:53:01;;;;;;;36.00;15.27;;;23.70;24.20;;;;;;5040709;28;20110;-66
2021/03/07 02:55:31;;;;;;;33.90;9.65;;;23.60;24.40;;;;;;5026884;28;20069;-65
2021/03/07 02:58:04;;;;;;;35.10;8.00;;;23.50;24.50;;;;;;5043082;28;20074;-63
2021/03/07 03:00:32;;;;;;;48.30;8.48;;;23.40;24.20;;;;;;5045558;28;20089;-64
2021/03/07 03:03:01;;;;;;;46.97;10.10;;;23.30;24.30;;;;;;5044682;28;20073;-65
2021/03/07 03:05:30;;;;;;;29.05;8.70;;;23.30;24.90;;;;;;5042750;28;20069;-63
2021/03/07 03:07:56;;;;;;;35.47;8.85;;;23.20;25.30;;;;;;5045473;28;20090;-66
2021/03/07 03:10:23;;;;;;;31.70;9.25;;;23.10;25.10;;;;;;5042579;28;20073;-66
2021/03/07 03:12:50;;;;;;;46.55;11.32;;;23.00;25.00;;;;;;5045273;28;20160;-67
2021/03/07 03:15:18;;;;;;;49.25;11.10;;;22.90;25.20;;;;;;5049221;28;20081;-67
2021/03/07 03:17:46;;;;;;;34.85;10.38;;;22.90;25.40;;;;;;5043885;28;20077;-66
2021/03/07 03:20:20;;;;;;;48.58;13.07;;;22.80;25.70;;;;;;5047058;28;20078;-64
2021/03/07 03:22:50;;;;;;;35.60;11.02;;;22.80;25.90;;;;;;5040828;28;20105;-65
2021/03/07 03:25:17;;;;;;;46.22;11.82;;;22.70;25.80;;;;;;5032686;28;20096;-65
2021/03/07 03:27:46;;;;;;;48.97;15.32;;;22.60;26.60;;;;;;5047289;28;20106;-65
2021/03/07 03:30:19;;;;;;;66.65;17.40;;;22.60;26.60;;;;;;5042549;28;20197;-64
2021/03/07 03:32:45;;;;;;;49.88;15.88;;;22.50;26.20;;;;;;5045197;28;20077;-67
2021/03/07 03:35:15;;;;;;;48.28;15.80;;;22.40;26.70;;;;;;5047793;28;20065;-65
2021/03/07 03:37:43;;;;;;;51.55;13.98;;;22.40;26.30;;;;;;5041639;28;20082;-64
2021/03/07 03:40:15;;;;;;;51.90;12.57;;;22.40;26.30;;;;;;5041320;28;20074;-65
2021/03/07 03:42:44;;;;;;;42.70;11.45;;;22.40;26.40;;;;;;5040711;28;20070;-65
2021/03/07 03:45:11;;;;;;;24.55;11.32;;;22.30;26.60;;;;;;5044280;28;20106;-67
2021/03/07 03:47:43;;;;;;;40.55;18.13;;;22.20;26.50;;;;;;5044224;28;20129;-65
2021/03/07 03:50:12;;;;;;;44.88;20.98;;;22.30;26.60;;;;;;5045793;28;20093;-65
2021/03/07 03:52:39;;;;;;;39.67;17.50;;;22.20;26.70;;;;;;5042560;28;20105;-65
2021/03/07 03:55:19;;;;;;;35.90;13.95;;;22.20;26.40;;;;;;5047020;28;20442;-66
2021/03/07 03:57:48;;;;;;;22.38;8.90;;;22.20;26.30;;;;;;5045909;28;20066;-65
2021/03/07 04:00:19;;;;;;;24.13;7.45;;;22.10;26.10;;;;;;5042914;28;20082;-66
2021/03/07 04:02:48;;;;;;;22.48;7.07;;;22.10;26.20;;;;;;5047638;28;20127;-65
2021/03/07 04:05:19;;;;;;;27.08;11.52;;;22.10;26.00;;;;;;5051137;28;20155;-64
2021/03/07 04:07:46;;;;;;;24.98;10.60;;;22.00;26.00;;;;;;5051871;28;20097;-66
2021/03/07 04:10:16;;;;;;;36.45;13.38;;;22.00;26.10;;;;;;5048922;28;20120;-65
2021/03/07 04:12:44;;;;;;;42.25;13.38;;;21.90;26.30;;;;;;5042202;28;20112;-66
2021/03/07 04:15:12;;;;;;;26.10;11.00;;;21.90;26.20;;;;;;5043650;28;20074;-66
2021/03/07 04:17:43;;;;;;;29.40;11.52;;;21.80;26.30;;;;;;5042101;28;20089;-67
2021/03/07 04:20:11;;;;;;;22.52;8.45;;;21.70;26.10;;;;;;5028547;28;20165;-67
2021/03/07 04:22:38;;;;;;;25.98;7.72;;;21.60;26.20;;;;;;5040116;28;20457;-66
2021/03/07 04:25:08;;;;;;;24.15;7.47;;;21.60;25.90;;;;;;5043919;28;20259;-66
2021/03/07 04:27:35;;;;;;;21.23;5.57;;;21.60;25.90;;;;;;5045434;28;21062;-66
2021/03/07 04:30:05;;;;;;;19.85;5.78;;;21.60;26.00;;;;;;5041621;28;20096;-65
2021/03/07 04:32:32;;;;;;;17.88;5.55;;;21.60;26.30;;;;;;5043602;28;20085;-67
2021/03/07 04:35:01;;;;;;;14.65;5.13;;;21.50;26.70;;;;;;5045803;28;20066;-65
2021/03/07 04:37:28;;;;;;;23.40;7.47;;;21.50;26.80;;;;;;5037813;28;20153;-67
2021/03/07 04:39:55;;;;;;;20.77;6.85;;;21.40;27.00;;;;;;5033874;28;20078;-66
2021/03/07 04:42:23;;;;;;;14.63;5.63;;;21.40;27.20;;;;;;5031030;28;20117;-66
2021/03/07 04:44:49;;;;;;;17.63;5.85;;;21.30;27.40;;;;;;5030067;28;20070;-66
2021/03/07 04:47:16;;;;;;;20.25;5.45;;;21.20;27.10;;;;;;5042083;28;20129;-66
2021/03/07 04:49:43;;;;;;;16.27;4.85;;;21.10;27.40;;;;;;5037323;28;20085;-65
2021/03/07 04:52:09;;;;;;;13.73;4.82;;;21.10;27.50;;;;;;5038625;28;20102;-65
2021/03/07 04:54:36;;;;;;;19.02;5.55;;;21.00;27.50;;;;;;5037861;28;20082;-65
2021/03/07 04:57:06;;;;;;;21.65;7.28;;;21.00;27.60;;;;;;5035378;28;20081;-68
2021/03/07 04:59:33;;;;;;;22.02;9.48;;;20.90;27.50;;;;;;5039765;28;20074;-65
2021/03/07 05:02:00;;;;;;;17.90;8.73;;;20.90;28.00;;;;;;5040923;28;20078;-66
2021/03/07 05:04:27;;;;;;;19.02;6.57;;;20.90;28.00;;;;;;5043319;28;20153;-65
2021/03/07 05:06:54;;;;;;;20.77;5.95;;;20.80;27.70;;;;;;5039332;28;20096;-65
2021/03/07 05:09:20;;;;;;;21.13;5.15;;;20.70;27.80;;;;;;5039502;28;20102;-65
2021/03/07 05:11:47;;;;;;;23.23;4.70;;;20.60;27.80;;;;;;5036858;28;20073;-65
2021/03/07 05:14:14;;;;;;;16.10;4.53;;;20.60;27.20;;;;;;5038763;28;20108;-66
2021/03/07 05:16:40;;;;;;;17.10;4.30;;;20.60;27.40;;;;;;5035008;28;20437;-65
2021/03/07 05:19:07;;;;;;;17.52;3.72;;;20.60;27.20;;;;;;5040454;28;20580;-66
2021/03/07 05:21:33;;;;;;;16.45;3.83;;;20.50;26.70;;;;;;5044089;28;20153;-66
2021/03/07 05:24:00;;;;;;;17.40;4.03;;;20.60;26.90;;;;;;5035360;28;20104;-65
2021/03/07 05:26:29;;;;;;;17.30;3.83;;;20.60;27.10;;;;;;5040593;28;20161;-65
2021/03/07 05:28:56;;;;;;;17.80;4.65;;;20.50;27.10;;;;;;5048047;28;20101;-66
2021/03/07 05:31:23;;;;;;;13.38;4.05;;;20.40;27.30;;;;;;5039592;28;20081;-65
2021/03/07 05:33:49;;;;;;;10.98;3.63;;;20.40;28.00;;;;;;5037190;28;20074;-64
2021/03/07 05:36:16;;;;;;;13.38;3.90;;;20.40;28.00;;;;;;5038379;28;20069;-66
2021/03/07 05:38:43;;;;;;;9.82;2.95;;;20.30;28.20;;;;;;5036978;28;20164;-67
2021/03/07 05:41:14;;;;;;;18.13;4.00;;;20.30;28.20;;;;;;5040612;28;20073;-65
2021/03/07 05:43:41;;;;;;;19.48;4.60;;;20.30;28.40;;;;;;5036375;28;20519;-65
2021/03/07 05:46:09;;;;;;;16.52;4.07;;;20.20;28.20;;;;;;5043195;28;20132;-65
2021/03/07 05:48:36;;;;;;;10.55;3.47;;;20.20;28.40;;;;;;5039636;28;20566;-65
2021/03/07 05:51:02;;;;;;;13.50;3.45;;;20.10;28.60;;;;;;5041237;28;20440;-67
2021/03/07 05:53:31;;;;;;;20.98;4.75;;;20.10;29.00;;;;;;5037662;28;20113;-67
2021/03/07 05:55:58;;;;;;;18.25;4.65;;;20.10;29.00;;;;;;5036876;28;20077;-65
2021/03/07 05:58:26;;;;;;;14.90;5.18;;;20.00;29.10;;;;;;5034410;28;20167;-68
2021/03/07 06:00:54;;;;;;;13.70;4.25;;;20.00;29.30;;;;;;5045963;28;20506;-66
2021/03/07 06:03:22;;;;;;;18.98;4.20;;;19.90;29.50;;;;;;5042621;28;20093;-67
2021/03/07 06:05:51;;;;;;;22.42;4.38;;;19.90;29.40;;;;;;5040427;28;20442;-66
2021/03/07 06:08:19;;;;;;;13.30;3.90;;;19.90;29.30;;;;;;5038443;28;20372;-67
2021/03/07 06:10:46;;;;;;;16.55;4.30;;;19.90;29.00;;;;;;5040320;28;20161;-66
2021/03/07 06:13:13;;;;;;;13.40;4.30;;;19.90;29.30;;;;;;5042334;28;20076;-64
2021/03/07 06:15:44;;;;;;;13.55;3.50;;;19.90;28.60;;;;;;5043270;28;20066;-65
2021/03/07 06:18:21;;;;;;;18.10;3.50;;;20.00;28.20;;;;;;5037870;28;20085;-65
2021/03/07 06:20:51;;;;;;;12.23;4.65;;;20.00;28.10;;;;;;5036426;28;20074;-67
2021/03/07 06:23:18;;;;;;;14.80;5.70;;;20.00;28.50;;;;;;5042126;28;20074;-68
2021/03/07 06:25:50;;;;;;;13.48;6.57;;;20.00;28.00;;;;;;5042399;28;20078;-64
2021/03/07 06:28:27;;;;;;;24.27;10.35;;;20.00;27.80;;;;;;5041948;28;20188;-64
2021/03/07 06:30:57;;;;;;;29.45;11.20;;;20.10;27.60;;;;;;5040716;28;20108;-64
2021/03/07 06:33:37;;;;;;;27.92;8.20;;;20.10;27.30;;;;;;5041111;28;20534;-65
2021/03/07 06:36:17;;;;;;;23.08;9.50;;;20.10;26.30;;;;;;5040514;28;20084;-64
2021/03/07 06:38:51;;;;;;;16.77;6.07;;;20.20;25.30;;;;;;5043031;28;20131;-63
2021/03/07 06:41:24;;;;;;;19.45;4.65;;;20.20;25.20;;;;;;5037066;28;20108;-64
2021/03/07 06:43:51;;;;;;;12.23;3.47;;;20.20;25.60;;;;;;5037213;28;20076;-65
2021/03/07 06:46:32;;;;;;;14.38;3.38;;;20.20;25.80;;;;;;5035673;28;20086;-65
2021/03/07 06:49:00;;;;;;;8.55;2.70;;;20.10;26.10;;;;;;5036616;28;20099;-66
2021/03/07 06:51:29;;;;;;;8.63;2.53;;;20.10;26.40;;;;;;5032069;28;20073;-66
2021/03/07 06:53:56;;;;;;;8.15;2.63;;;20.10;26.20;;;;;;5038253;28;20086;-65
2021/03/07 06:56:57;;;;;;;8.10;2.95;;;20.00;26.50;;;;;;5036515;28;20161;-65
2021/03/07 06:59:24;;;;;;;13.02;3.30;;;19.90;26.60;;;;;;5035369;28;20134;-64
2021/03/07 07:01:55;;;;;;;11.18;3.63;;;19.90;26.90;;;;;;5033494;28;20553;-66
2021/03/07 07:04:23;;;;;;;10.85;3.08;;;19.90;26.90;;;;;;5035935;28;20207;-65
2021/03/07 07:07:04;;;;;;;11.48;3.47;;;19.90;27.20;;;;;;5034981;28;20066;-64
2021/03/07 07:09:32;;;;;;;9.77;3.40;;;19.80;27.40;;;;;;5038984;28;20073;-65
2021/03/07 07:11:59;;;;;;;13.02;3.20;;;19.80;27.60;;;;;;5036003;28;20074;-65
2021/03/07 07:14:41;;;;;;;8.25;3.20;;;19.70;28.00;;;;;;5039020;28;20089;-66
2021/03/07 07:17:11;;;;;;;13.60;2.90;;;19.60;28.40;;;;;;5038337;28;20138;-65
2021/03/07 07:19:39;;;;;;;10.40;2.60;;;19.50;28.30;;;;;;5034667;28;20070;-64
2021/03/07 07:22:11;;;;;;;10.32;3.17;;;19.50;28.50;;;;;;5037344;28;20077;-64
2021/03/07 07:24:41;;;;;;;10.95;2.60;;;19.40;28.70;;;;;;5034238;28;20097;-65
2021/03/07 07:27:09;;;;;;;9.73;2.10;;;19.30;28.90;;;;;;5030739;28;20530;-64
2021/03/07 07:29:37;;;;;;;20.05;3.10;;;19.20;29.10;;;;;;5034849;28;20527;-65
2021/03/07 07:32:17;;;;;;;13.30;2.78;;;19.20;29.30;;;;;;5033424;28;20082;-66
2021/03/07 07:34:51;;;;;;;12.77;2.80;;;19.10;29.20;;;;;;5033579;28;20298;-66
2021/03/07 07:37:34;;;;;;;14.48;3.15;;;19.00;29.10;;;;;;5037176;28;20135;-66
2021/03/07 07:40:01;;;;;;;12.32;3.78;;;18.90;29.70;;;;;;5032076;28;20412;-66
2021/03/07 07:42:31;;;;;;;20.85;6.50;;;18.80;29.90;;;;;;5052507;28;20144;-65
2021/03/07 07:45:00;;;;;;;27.40;7.80;;;18.70;30.40;;;;;;5033746;28;20069;-65
2021/03/07 07:47:44;;;;;;;20.38;7.18;;;18.70;30.10;;;;;;5035268;28;20144;-66
2021/03/07 07:50:34;;;;;;;14.85;6.05;;;18.60;30.30;;;;;;5032367;28;20156;-65
2021/03/07 07:53:06;;;;;;;16.48;5.57;;;18.50;30.40;;;;;;5029439;28;20129;-65
2021/03/07 07:55:50;;;;;;;20.20;5.13;;;18.50;30.30;;;;;;5033364;28;20109;-65
2021/03/07 07:58:35;;;;;;;14.80;4.25;;;18.40;30.60;;;;;;5031238;28;20470;-64
2021/03/07 08:01:12;;;;;;;18.60;4.22;;;18.30;30.90;;;;;;5033457;28;20072;-65
2021/03/07 08:03:41;;;;;;;15.27;3.33;;;18.20;31.40;;;;;;5033768;28;20465;-65
2021/03/07 08:06:10;;;;;;;20.63;3.90;;;18.10;31.20;;;;;;5031962;28;20542;-65
2021/03/07 08:08:39;;;;;;;27.20;4.22;;;18.00;31.20;;;;;;5031622;28;20109;-65
2021/03/07 08:11:28;;;;;;;20.75;4.45;;;18.00;32.30;;;;;;5030701;28;20086;-64
2021/03/07 08:13:56;;;;;;;14.57;4.40;;;18.00;33.40;;;;;;5031425;28;20433;-66
2021/03/07 08:16:44;;;;;;;28.42;4.38;;;18.00;33.80;;;;;;5032032;28;20534;-65
2021/03/07 08:19:16;;;;;;;21.10;4.45;;;18.00;34.40;;;;;;5046814;28;20070;-65
2021/03/07 08:22:15;;;;;;;22.48;4.25;;;17.90;35.00;;;;;;5041299;28;20084;-64
2021/03/07 08:24:58;;;;;;;15.57;4.95;;;17.90;35.60;;;;;;5005402;28;20085;-65
2021/03/07 08:27:38;;;;;;;15.43;4.70;;;17.80;35.90;;;;;;5041775;28;20104;-65
2021/03/07 08:30:10;;;;;;;23.50;4.80;;;17.80;36.50;;;;;;5041207;28;20089;-64
2021/03/07 08:32:41;;;;;;;11.00;3.40;;;17.70;37.00;;;;;;5039788;28;20070;-65
2021/03/07 08:35:14;;;;;;;17.20;3.15;;;17.70;37.20;;;;;;5041667;28;20078;-65
2021/03/07 08:37:41;;;;;;;15.32;3.55;;;17.70;38.30;;;;;;5044113;28;20111;-65
2021/03/07 08:40:32;;;;;;;15.98;3.30;;;17.60;38.00;;;;;;5036765;28;20085;-64
2021/03/07 08:43:34;;;;;;;17.35;2.90;;;17.60;38.20;;;;;;5043709;28;20082;-65
2021/03/07 08:46:02;;;;;;;13.95;3.28;;;17.60;38.30;;;;;;5019984;28;20139;-64
2021/03/07 08:48:30;;;;;;;12.75;3.28;;;17.60;38.50;;;;;;5038156;28;20116;-65
2021/03/07 08:50:57;;;;;;;14.75;3.67;;;17.50;38.70;;;;;;5039674;28;20535;-65
2021/03/07 08:53:25;;;;;;;12.05;3.70;;;17.40;39.00;;;;;;5056882;28;20121;-65
2021/03/07 08:55:52;;;;;;;16.95;3.55;;;17.40;39.30;;;;;;5039644;28;20410;-64
2021/03/07 08:58:20;;;;;;;13.13;3.55;;;17.30;39.40;;;;;;5043135;28;20077;-65
2021/03/07 09:00:48;;;;;;;14.77;4.30;;;17.30;39.40;;;;;;5045225;28;20093;-64
2021/03/07 09:03:17;;;;;;;19.92;4.20;;;17.30;39.80;;;;;;5045974;28;20088;-65
2021/03/07 09:05:44;;;;;;;12.88;3.83;;;17.20;40.10;;;;;;5055842;28;20148;-65
2021/03/07 09:08:11;;;;;;;9.77;3.33;;;17.10;40.20;;;;;;5045411;28;20277;-65
2021/03/07 09:10:40;;;;;;;12.45;3.25;;;17.10;40.40;;;;;;5040978;28;20066;-64
2021/03/07 09:13:18;;;;;;;13.60;3.25;;;17.00;40.70;;;;;;5040784;28;20120;-65
2021/03/07 09:16:01;;;;;;;14.27;3.55;;;17.10;40.70;;;;;;5041238;28;20078;-65
2021/03/07 09:18:32;;;;;;;16.83;3.70;;;17.10;41.20;;;;;;5036197;28;20069;-65
2021/03/07 09:21:23;;;;;;;13.85;3.00;;;17.10;41.00;;;;;;5041052;28;20070;-66
2021/03/07 09:23:50;;;;;;;19.35;3.20;;;17.00;41.20;;;;;;5042899;28;20149;-65
2021/03/07 09:26:18;;;;;;;12.88;2.85;;;17.00;41.20;;;;;;5041361;28;20429;-65
2021/03/07 09:28:50;;;;;;;14.98;2.92;;;17.00;41.20;;;;;;5041934;28;20572;-65
2021/03/07 09:31:19;;;;;;;9.65;2.40;;;17.00;40.90;;;;;;5053083;28;20088;-64
2021/03/07 09:33:51;;;;;;;15.40;2.85;;;16.90;39.80;;;;;;5042716;28;20088;-66
2021/03/07 09:36:20;;;;;;;18.85;3.63;;;16.90;39.20;;;;;;5039580;28;20061;-65
2021/03/07 09:38:51;;;;;;;12.65;2.50;;;16.80;38.40;;;;;;5039904;28;20547;-65
2021/03/07 09:41:38;;;;;;;6.22;2.15;;;16.80;38.40;;;;;;5052045;28;20074;-65
2021/03/07 09:44:12;;;;;;;13.20;1.85;;;16.80;37.70;;;;;;5041494;28;20111;-65
2021/03/07 09:46:43;;;;;;;8.32;2.03;;;16.80;36.70;;;;;;5037388;28;20074;-65
2021/03/07 09:49:13;;;;;;;8.07;1.75;;;16.80;37.00;;;;;;5039282;28;20090;-65
2021/03/07 09:51:46;;;;;;;6.47;1.90;;;16.80;37.20;;;;;;5037834;28;20523;-65
2021/03/07 09:54:15;;;;;;;11.32;2.45;;;16.80;37.20;;;;;;5034340;28;20586;-66
2021/03/07 09:56:42;;;;;;;10.55;2.60;;;16.80;37.70;;;;;;5033027;28;20081;-65
2021/03/07 09:59:17;;;;;;;8.40;2.78;;;16.80;37.70;;;;;;5039111;28;20415;-64
2021/03/07 10:02:09;;;;;;;8.38;2.25;;;16.70;38.00;;;;;;5039136;28;20088;-64
2021/03/07 10:04:49;;;;;;;6.00;1.80;;;16.80;37.50;;;;;;5031667;28;20148;-64
2021/03/07 10:07:18;;;;;;;8.80;2.30;;;16.70;37.40;;;;;;5040253;28;20094;-66
2021/03/07 10:10:14;;;;;;;8.55;2.17;;;16.70;37.00;;;;;;5041718;28;20088;-64
2021/03/07 10:12:57;;;;;;;5.50;2.03;;;16.70;36.90;;;;;;5033424;28;20070;-64
2021/03/07 10:15:35;;;;;;;8.55;1.80;;;16.70;36.00;;;;;;5035866;28;20074;-65
2021/03/07 10:18:18;;;;;;;8.15;2.00;;;16.70;35.60;;;;;;5037382;28;20099;-65
2021/03/07 10:20:44;;;;;;;10.73;2.10;;;16.80;35.20;;;;;;5037370;28;20074;-65
2021/03/07 10:23:11;;;;;;;8.60;1.95;;;16.80;34.50;;;;;;5037255;28;20153;-65
2021/03/07 10:25:40;;;;;;;11.77;2.30;;;16.90;34.90;;;;;;5035705;28;20077;-65
2021/03/07 10:28:31;;;;;;;6.38;1.85;;;17.00;34.20;;;;;;5034533;28;20094;-65
2021/03/07 10:31:13;;;;;;;7.70;1.58;;;17.00;33.90;;;;;;5053047;28;20511;-65
2021/03/07 10:33:40;;;;;;;6.70;1.92;;;17.10;34.20;;;;;;5053080;28;20120;-65
2021/03/07 10:36:18;;;;;;;9.55;2.30;;;17.10;34.30;;;;;;5033248;28;20162;-65
2021/03/07 10:39:08;;;;;;;8.63;1.88;;;17.10;34.50;;;;;;5037200;28;20065;-65
2021/03/07 10:41:35;;;;;;;8.52;2.25;;;17.10;35.00;;;;;;5039419;28;20074;-66
2021/03/07 10:44:03;;;;;;;8.45;2.55;;;17.10;35.40;;;;;;5038211;28;20091;-66
2021/03/07 10:46:34;;;;;;;9.85;2.13;;;17.10;35.70;;;;;;5035783;28;20573;-66
2021/03/07 10:49:11;;;;;;;4.55;1.70;;;17.10;36.00;;;;;;5038265;28;20179;-65
2021/03/07 10:51:37;;;;;;;;;;;17.10;35.90;;;;;;5036922;28;20577;-65
2021/03/07 10:54:05;;;;;;;3.58;1.73;;;17.00;35.90;;;;;;5038581;28;19997;-65
2021/03/07 10:56:38;;;;;;;4.10;1.90;;;17.00;36.00;;;;;;5036549;28;20096;-65
2021/03/07 10:59:05;;;;;;;8.68;2.20;;;17.00;36.30;;;;;;5034771;28;20105;-65
2021/03/07 11:01:32;;;;;;;5.25;2.10;;;17.00;36.00;;;;;;5035296;28;20306;-65
2021/03/07 11:03:58;;;;;;;14.25;2.00;;;17.00;36.10;;;;;;5035147;28;20074;-65
2021/03/07 11:06:24;;;;;;;;;;;17.00;36.10;;;;;;5034391;28;20070;-64
2021/03/07 11:08:52;;;;;;;7.97;2.20;;;17.00;36.20;;;;;;5037150;28;19984;-64
2021/03/07 11:11:19;;;;;;;6.18;2.30;;;17.00;36.60;;;;;;5035906;28;20077;-64
2021/03/07 11:13:46;;;;;;;4.07;2.10;;;16.90;36.30;;;;;;5035294;28;20135;-64
2021/03/07 11:16:12;;;;;;;4.75;1.70;;;16.90;36.40;;;;;;5033862;28;20070;-65
2021/03/07 11:18:39;;;;;;;5.43;2.25;;;16.70;36.10;;;;;;5035131;28;20259;-65
2021/03/07 11:21:06;;;;;;;5.80;1.85;;;16.70;36.50;;;;;;5034291;28;20073;-65
2021/03/07 11:23:34;;;;;;;6.70;1.80;;;16.60;36.30;;;;;;5035172;28;20096;-65
2021/03/07 11:26:02;;;;;;;7.50;2.13;;;16.60;36.20;;;;;;5035218;28;20081;-66
2021/03/07 11:28:28;;;;;;;10.20;2.10;;;16.40;36.30;;;;;;5039562;28;20101;-65
2021/03/07 11:30:54;;;;;;;;;;;16.40;36.30;;;;;;5035784;28;20547;-65
2021/03/07 11:33:21;;;;;;;5.70;2.08;;;16.40;36.70;;;;;;5035968;28;19957;-66
2021/03/07 11:35:47;;;;;;;;;;;16.40;36.40;;;;;;5037675;28;21484;-66
2021/03/07 11:38:14;;;;;;;9.05;1.88;;;16.40;37.10;;;;;;5037642;28;19964;-64
2021/03/07 11:40:40;;;;;;;;;;;16.40;36.70;;;;;;5035853;28;20077;-65
2021/03/07 11:43:06;;;;;;;5.95;1.90;;;16.30;37.00;;;;;;5038862;28;20008;-66
2021/03/07 11:45:32;;;;;;;;;;;16.20;37.20;;;;;;5036056;28;20071;-65
2021/03/07 11:47:59;;;;;;;10.90;2.20;;;16.20;37.80;;;;;;5035819;28;19981;-65
2021/03/07 11:50:26;;;;;;;8.80;1.75;;;16.10;37.70;;;;;;5039732;28;20069;-65
2021/03/07 11:52:52;;;;;;;7.55;1.77;;;16.10;38.00;;;;;;5036469;28;20158;-65
2021/03/07 11:55:18;;;;;;;;;;;16.00;38.10;;;;;;5038950;28;20084;-66
2021/03/07 11:57:45;;;;;;;7.28;1.88;;;15.90;38.30;;;;;;5037194;28;19966;-66
2021/03/07 12:00:11;;;;;;;;;;;15.90;38.50;;;;;;5036176;28;20097;-66
2021/03/07 12:02:38;;;;;;;4.80;2.25;;;15.90;39.00;;;;;;5040123;28;20343;-66
2021/03/07 12:05:04;;;;;;;;;;;15.90;39.40;;;;;;5039916;28;20069;-65
2021/03/07 12:07:31;;;;;;;7.70;2.00;;;15.90;39.70;;;;;;5038547;28;20071;-65
2021/03/07 12:09:57;;;;;;;;;;;15.90;40.00;;;;;;5038455;28;20541;-65
2021/03/07 12:12:24;;;;;;;8.75;1.90;;;15.80;40.00;;;;;;5038024;28;20114;-65
2021/03/07 12:14:50;;;;;;;;;;;15.80;40.00;;;;;;5039137;28;20084;-66
2021/03/07 12:17:17;;;;;;;7.22;1.90;;;15.80;39.90;;;;;;5036497;28;20008;-66
2021/03/07 12:19:43;;;;;;;6.25;2.28;;;15.80;40.10;;;;;;5039803;28;20077;-64
2021/03/07 12:22:09;;;;;;;;;;;15.70;40.40;;;;;;5036328;28;20492;-65
2021/03/07 12:24:36;;;;;;;10.00;2.10;;;15.70;40.50;;;;;;5036513;28;19991;-65
2021/03/07 12:27:05;;;;;;;;;;;15.60;40.20;;;;;;5032916;28;20070;-66
2021/03/07 12:29:33;;;;;;;5.75;2.22;;;15.50;40.90;;;;;;5039786;28;19964;-64
2021/03/07 12:32:00;;;;;;;8.48;2.20;;;15.40;40.80;;;;;;5034838;28;20511;-65
2021/03/07 12:34:27;;;;;;;7.63;2.10;;;15.30;41.30;;;;;;5037385;28;20625;-65
2021/03/07 12:36:53;;;;;;;9.05;2.58;;;15.30;42.00;;;;;;5036536;28;20077;-64
2021/03/07 12:39:20;;;;;;;8.07;2.45;;;15.20;42.10;;;;;;5033819;28;20075;-65
2021/03/07 12:41:47;;;;;;;13.05;2.90;;;15.20;42.00;;;;;;5033857;28;20077;-65
2021/03/07 12:44:15;;;;;;;13.48;2.90;;;15.10;42.70;;;;;;5039398;28;20078;-64
2021/03/07 12:46:41;;;;;;;10.80;2.88;;;15.10;42.70;;;;;;5036278;28;20068;-65
2021/03/07 12:49:09;;;;;;;7.43;2.65;;;15.00;42.70;;;;;;5035419;28;20090;-65
2021/03/07 12:51:36;;;;;;;9.10;2.53;;;14.90;43.00;;;;;;5034381;28;20117;-65
2021/03/07 12:54:03;;;;;;;18.98;3.40;;;14.70;43.00;;;;;;5032335;28;20094;-65
2021/03/07 12:56:32;;;;;;;11.93;2.30;;;14.80;43.80;;;;;;5037370;28;20128;-65